sensor_id;sensor_type;location;lat;lon;timestamp;pressure;altitude;pressure_sealevel;temperature;humidity
60646;BME280;46462;32.608;-117.032;2023-01-13T00:01:06;99928.12;;;20.21;33.67
60646;BME280;46462;32.608;-117.032;2023-01-13T00:03:35;99927.05;;;20.24;33.59
60646;BME280;46462;32.608;-117.032;2023-01-13T00:06:06;99926.77;;;20.29;33.53
60646;BME280;46462;32.608;-117.032;2023-01-13T00:08:35;99926.07;;;20.04;34.13
60646;BME280;46462;32.608;-117.032;2023-01-13T00:11:05;99928.07;;;19.89;34.46
60646;BME280;46462;32.608;-117.032;2023-01-13T00:13:36;99925.26;;;19.87;34.64
60646;BME280;46462;32.608;-117.032;2023-01-13T00:16:09;99920.26;;;19.85;34.63
60646;BME280;46462;32.608;-117.032;2023-01-13T00:18:36;99917.74;;;19.80;34.85
60646;BME280;46462;32.608;-117.032;2023-01-13T00:21:10;99919.89;;;19.85;34.82
60646;BME280;46462;32.608;-117.032;2023-01-13T00:23:36;99915.97;;;19.61;35.20
60646;BME280;46462;32.608;-117.032;2023-01-13T00:26:09;99914.45;;;19.53;35.41
60646;BME280;46462;32.608;-117.032;2023-01-13T00:28:37;99915.64;;;19.50;35.58
60646;BME280;46462;32.608;-117.032;2023-01-13T00:31:08;99898.66;;;20.12;34.62
60646;BME280;46462;32.608;-117.032;2023-01-13T00:33:37;99901.37;;;22.54;30.73
60646;BME280;46462;32.608;-117.032;2023-01-13T00:36:09;99897.27;;;23.63;28.68
60646;BME280;46462;32.608;-117.032;2023-01-13T00:38:38;99897.33;;;24.56;27.34
60646;BME280;46462;32.608;-117.032;2023-01-13T00:41:09;99903.98;;;25.16;26.48
60646;BME280;46462;32.608;-117.032;2023-01-13T00:43:38;99910.19;;;25.53;25.99
60646;BME280;46462;32.608;-117.032;2023-01-13T00:46:10;99907.77;;;25.78;25.76
60646;BME280;46462;32.608;-117.032;2023-01-13T00:48:38;99902.65;;;25.92;25.57
60646;BME280;46462;32.608;-117.032;2023-01-13T00:51:11;99904.63;;;26.01;25.47
60646;BME280;46462;32.608;-117.032;2023-01-13T00:53:40;99906.62;;;26.07;25.52
60646;BME280;46462;32.608;-117.032;2023-01-13T00:56:12;99905.22;;;26.10;25.49
60646;BME280;46462;32.608;-117.032;2023-01-13T00:58:39;99905.71;;;26.12;25.53
60646;BME280;46462;32.608;-117.032;2023-01-13T01:01:10;99902.75;;;26.12;25.65
60646;BME280;46462;32.608;-117.032;2023-01-13T01:03:39;99900.08;;;26.13;25.64
60646;BME280;46462;32.608;-117.032;2023-01-13T01:06:12;99900.28;;;26.14;25.68
60646;BME280;46462;32.608;-117.032;2023-01-13T01:08:40;99899.62;;;26.13;25.79
60646;BME280;46462;32.608;-117.032;2023-01-13T01:11:12;99900.95;;;26.14;25.82
60646;BME280;46462;32.608;-117.032;2023-01-13T01:13:40;99895.88;;;26.13;26.06
60646;BME280;46462;32.608;-117.032;2023-01-13T01:16:12;99889.88;;;26.13;26.06
60646;BME280;46462;32.608;-117.032;2023-01-13T01:18:42;99878.32;;;26.09;26.23
60646;BME280;46462;32.608;-117.032;2023-01-13T01:21:11;99864.18;;;26.08;26.27
60646;BME280;46462;32.608;-117.032;2023-01-13T01:23:41;99854.05;;;26.04;26.43
60646;BME280;46462;32.608;-117.032;2023-01-13T01:26:13;99852.65;;;26.03;26.69
60646;BME280;46462;32.608;-117.032;2023-01-13T01:28:41;99853.39;;;26.02;26.60
60646;BME280;46462;32.608;-117.032;2023-01-13T01:31:13;99865.08;;;26.01;26.63
60646;BME280;46462;32.608;-117.032;2023-01-13T01:33:41;99875.59;;;26.00;26.71
60646;BME280;46462;32.608;-117.032;2023-01-13T01:36:12;99889.00;;;25.98;26.68
60646;BME280;46462;32.608;-117.032;2023-01-13T01:38:41;99889.67;;;25.97;26.71
60646;BME280;46462;32.608;-117.032;2023-01-13T01:41:14;99893.02;;;25.95;26.89
60646;BME280;46462;32.608;-117.032;2023-01-13T01:43:47;99893.20;;;25.94;27.04
60646;BME280;46462;32.608;-117.032;2023-01-13T01:46:12;99896.23;;;25.94;27.18
60646;BME280;46462;32.608;-117.032;2023-01-13T01:48:42;99894.79;;;25.92;27.36
60646;BME280;46462;32.608;-117.032;2023-01-13T01:51:13;99891.54;;;25.89;27.54
60646;BME280;46462;32.608;-117.032;2023-01-13T01:53:43;99890.28;;;25.87;27.63
60646;BME280;46462;32.608;-117.032;2023-01-13T01:56:12;99888.13;;;25.85;27.56
60646;BME280;46462;32.608;-117.032;2023-01-13T01:58:46;99895.00;;;25.84;27.75
60646;BME280;46462;32.608;-117.032;2023-01-13T02:01:14;99908.98;;;25.85;27.80
60646;BME280;46462;32.608;-117.032;2023-01-13T02:03:48;99922.63;;;25.83;27.70
60646;BME280;46462;32.608;-117.032;2023-01-13T02:06:13;99930.01;;;25.81;27.72
60646;BME280;46462;32.608;-117.032;2023-01-13T02:08:43;99931.59;;;25.80;27.86
60646;BME280;46462;32.608;-117.032;2023-01-13T02:13:43;99935.58;;;25.73;28.31
60646;BME280;46462;32.608;-117.032;2023-01-13T02:16:18;99943.60;;;25.72;28.34
60646;BME280;46462;32.608;-117.032;2023-01-13T02:18:54;99942.08;;;25.74;28.18
60646;BME280;46462;32.608;-117.032;2023-01-13T02:23:54;99963.67;;;25.71;28.38
60646;BME280;46462;32.608;-117.032;2023-01-13T02:26:31;99967.61;;;25.71;28.40
60646;BME280;46462;32.608;-117.032;2023-01-13T02:28:56;99970.40;;;25.71;28.39
60646;BME280;46462;32.608;-117.032;2023-01-13T02:31:15;99971.36;;;25.72;28.58
60646;BME280;46462;32.608;-117.032;2023-01-13T02:33:58;99969.48;;;25.70;28.59
60646;BME280;46462;32.608;-117.032;2023-01-13T02:36:22;99969.66;;;25.66;28.64
60646;BME280;46462;32.608;-117.032;2023-01-13T02:38:50;99973.17;;;25.64;28.76
60646;BME280;46462;32.608;-117.032;2023-01-13T02:41:23;99974.90;;;25.63;28.65
60646;BME280;46462;32.608;-117.032;2023-01-13T02:43:47;99975.85;;;25.59;29.04
60646;BME280;46462;32.608;-117.032;2023-01-13T02:46:20;99974.12;;;25.61;29.06
60646;BME280;46462;32.608;-117.032;2023-01-13T02:48:47;99977.80;;;25.59;28.98
60646;BME280;46462;32.608;-117.032;2023-01-13T02:51:18;99981.46;;;25.57;29.16
60646;BME280;46462;32.608;-117.032;2023-01-13T02:53:52;99983.98;;;25.57;29.05
60646;BME280;46462;32.608;-117.032;2023-01-13T02:56:17;99986.90;;;25.54;29.19
60646;BME280;46462;32.608;-117.032;2023-01-13T02:58:48;99984.62;;;25.53;29.20
60646;BME280;46462;32.608;-117.032;2023-01-13T03:01:17;99987.36;;;25.51;29.45
60646;BME280;46462;32.608;-117.032;2023-01-13T03:03:47;99994.32;;;25.49;29.36
60646;BME280;46462;32.608;-117.032;2023-01-13T03:08:50;100000.09;;;25.46;29.66
60646;BME280;46462;32.608;-117.032;2023-01-13T03:11:19;99998.87;;;25.46;29.66
60646;BME280;46462;32.608;-117.032;2023-01-13T03:16:25;100005.86;;;25.43;29.82
60646;BME280;46462;32.608;-117.032;2023-01-13T03:18:54;100011.37;;;25.43;29.89
60646;BME280;46462;32.608;-117.032;2023-01-13T03:21:22;100011.80;;;25.42;29.92
60646;BME280;46462;32.608;-117.032;2023-01-13T03:23:51;100016.31;;;25.39;30.06
60646;BME280;46462;32.608;-117.032;2023-01-13T03:26:26;100025.59;;;25.39;30.17
60646;BME280;46462;32.608;-117.032;2023-01-13T03:28:55;100031.94;;;25.37;30.31
60646;BME280;46462;32.608;-117.032;2023-01-13T03:31:25;100035.07;;;25.35;30.20
60646;BME280;46462;32.608;-117.032;2023-01-13T03:33:52;100037.70;;;25.34;30.38
60646;BME280;46462;32.608;-117.032;2023-01-13T03:36:23;100040.39;;;25.32;30.32
60646;BME280;46462;32.608;-117.032;2023-01-13T03:38:51;100043.66;;;25.31;30.46
60646;BME280;46462;32.608;-117.032;2023-01-13T03:41:23;100040.92;;;25.31;30.37
60646;BME280;46462;32.608;-117.032;2023-01-13T03:43:54;100029.94;;;25.28;30.56
60646;BME280;46462;32.608;-117.032;2023-01-13T03:46:25;100022.75;;;25.27;30.54
60646;BME280;46462;32.608;-117.032;2023-01-13T03:48:53;100022.30;;;25.25;30.51
60646;BME280;46462;32.608;-117.032;2023-01-13T03:51:24;100023.46;;;25.24;30.73
60646;BME280;46462;32.608;-117.032;2023-01-13T03:53:53;100027.19;;;25.24;30.99
60646;BME280;46462;32.608;-117.032;2023-01-13T03:56:25;100024.57;;;25.24;30.85
60646;BME280;46462;32.608;-117.032;2023-01-13T03:58:52;100022.99;;;25.21;30.87
60646;BME280;46462;32.608;-117.032;2023-01-13T04:01:24;100024.03;;;25.19;30.99
60646;BME280;46462;32.608;-117.032;2023-01-13T04:03:55;100022.07;;;25.15;31.25
60646;BME280;46462;32.608;-117.032;2023-01-13T04:06:27;100017.43;;;25.14;31.03
60646;BME280;46462;32.608;-117.032;2023-01-13T04:08:56;100021.99;;;25.14;31.29
60646;BME280;46462;32.608;-117.032;2023-01-13T04:11:28;100021.31;;;25.13;31.35
60646;BME280;46462;32.608;-117.032;2023-01-13T04:13:52;100023.80;;;25.08;31.29
60646;BME280;46462;32.608;-117.032;2023-01-13T04:16:22;100026.62;;;25.11;31.51
60646;BME280;46462;32.608;-117.032;2023-01-13T04:18:52;100029.08;;;25.08;31.48
60646;BME280;46462;32.608;-117.032;2023-01-13T04:21:22;100030.51;;;25.05;31.49
60646;BME280;46462;32.608;-117.032;2023-01-13T04:23:53;100024.82;;;25.04;31.66
60646;BME280;46462;32.608;-117.032;2023-01-13T04:26:23;100021.69;;;25.01;31.66
60646;BME280;46462;32.608;-117.032;2023-01-13T04:28:53;100022.82;;;25.00;31.64
60646;BME280;46462;32.608;-117.032;2023-01-13T04:31:23;100024.73;;;24.99;31.91
60646;BME280;46462;32.608;-117.032;2023-01-13T04:33:53;100024.00;;;24.97;31.73
60646;BME280;46462;32.608;-117.032;2023-01-13T04:36:23;100024.27;;;24.96;31.95
60646;BME280;46462;32.608;-117.032;2023-01-13T04:38:54;100023.91;;;24.94;32.00
60646;BME280;46462;32.608;-117.032;2023-01-13T04:41:24;100022.59;;;24.94;31.89
60646;BME280;46462;32.608;-117.032;2023-01-13T04:43:54;100017.60;;;24.92;32.37
60646;BME280;46462;32.608;-117.032;2023-01-13T04:46:24;100018.31;;;24.91;31.91
60646;BME280;46462;32.608;-117.032;2023-01-13T04:48:55;100021.92;;;24.91;31.91
60646;BME280;46462;32.608;-117.032;2023-01-13T04:51:25;100023.00;;;24.90;32.02
60646;BME280;46462;32.608;-117.032;2023-01-13T04:53:55;100021.00;;;24.88;31.86
60646;BME280;46462;32.608;-117.032;2023-01-13T04:56:25;100023.79;;;24.86;31.99
60646;BME280;46462;32.608;-117.032;2023-01-13T04:58:55;100027.53;;;24.84;31.97
60646;BME280;46462;32.608;-117.032;2023-01-13T05:01:25;100035.28;;;24.82;32.09
60646;BME280;46462;32.608;-117.032;2023-01-13T05:03:56;100035.48;;;24.82;32.04
60646;BME280;46462;32.608;-117.032;2023-01-13T05:06:26;100029.78;;;24.78;32.08
60646;BME280;46462;32.608;-117.032;2023-01-13T05:08:56;100027.54;;;24.78;31.99
60646;BME280;46462;32.608;-117.032;2023-01-13T05:11:26;100024.59;;;24.74;32.30
60646;BME280;46462;32.608;-117.032;2023-01-13T05:13:56;100023.46;;;24.73;32.14
60646;BME280;46462;32.608;-117.032;2023-01-13T05:16:26;100020.74;;;24.72;32.32
60646;BME280;46462;32.608;-117.032;2023-01-13T05:18:57;100023.69;;;24.69;32.13
60646;BME280;46462;32.608;-117.032;2023-01-13T05:21:27;100024.65;;;24.67;32.17
60646;BME280;46462;32.608;-117.032;2023-01-13T05:23:57;100025.09;;;24.62;32.20
60646;BME280;46462;32.608;-117.032;2023-01-13T05:26:27;100025.04;;;24.62;32.26
60646;BME280;46462;32.608;-117.032;2023-01-13T05:28:57;100021.11;;;24.62;32.32
60646;BME280;46462;32.608;-117.032;2023-01-13T05:31:28;100017.95;;;24.56;32.46
60646;BME280;46462;32.608;-117.032;2023-01-13T05:33:58;100019.34;;;24.55;32.53
60646;BME280;46462;32.608;-117.032;2023-01-13T05:36:28;100019.05;;;24.55;32.44
60646;BME280;46462;32.608;-117.032;2023-01-13T05:38:58;100021.36;;;24.56;32.42
60646;BME280;46462;32.608;-117.032;2023-01-13T05:41:28;100024.90;;;24.54;32.55
60646;BME280;46462;32.608;-117.032;2023-01-13T05:43:58;100024.70;;;24.50;32.60
60646;BME280;46462;32.608;-117.032;2023-01-13T05:46:29;100022.53;;;24.50;32.65
60646;BME280;46462;32.608;-117.032;2023-01-13T05:48:59;100023.38;;;24.48;32.68
60646;BME280;46462;32.608;-117.032;2023-01-13T05:51:29;100029.31;;;24.45;32.68
60646;BME280;46462;32.608;-117.032;2023-01-13T05:53:59;100028.26;;;24.43;32.73
60646;BME280;46462;32.608;-117.032;2023-01-13T05:56:29;100026.78;;;24.36;32.81
60646;BME280;46462;32.608;-117.032;2023-01-13T05:58:59;100031.47;;;24.37;32.84
60646;BME280;46462;32.608;-117.032;2023-01-13T06:01:30;100036.33;;;24.32;32.86
60646;BME280;46462;32.608;-117.032;2023-01-13T06:04:00;100037.88;;;24.25;32.99
60646;BME280;46462;32.608;-117.032;2023-01-13T06:06:30;100041.43;;;24.23;33.02
60646;BME280;46462;32.608;-117.032;2023-01-13T06:09:00;100043.90;;;24.20;33.08
60646;BME280;46462;32.608;-117.032;2023-01-13T06:11:30;100044.05;;;24.20;33.15
60646;BME280;46462;32.608;-117.032;2023-01-13T06:14:01;100044.36;;;24.23;33.08
60646;BME280;46462;32.608;-117.032;2023-01-13T06:16:31;100047.95;;;24.21;33.15
60646;BME280;46462;32.608;-117.032;2023-01-13T06:19:01;100046.84;;;24.17;33.18
60646;BME280;46462;32.608;-117.032;2023-01-13T06:21:31;100049.99;;;24.14;33.25
60646;BME280;46462;32.608;-117.032;2023-01-13T06:24:02;100048.31;;;24.13;33.24
60646;BME280;46462;32.608;-117.032;2023-01-13T06:26:36;100047.95;;;24.07;33.34
60646;BME280;46462;32.608;-117.032;2023-01-13T06:29:02;100049.07;;;23.98;33.41
60646;BME280;46462;32.608;-117.032;2023-01-13T06:31:33;100044.08;;;23.96;33.43
60646;BME280;46462;32.608;-117.032;2023-01-13T06:34:05;100045.68;;;24.00;33.43
60646;BME280;46462;32.608;-117.032;2023-01-13T06:36:36;100053.77;;;23.99;33.43
60646;BME280;46462;32.608;-117.032;2023-01-13T06:39:04;100054.61;;;23.99;33.41
60646;BME280;46462;32.608;-117.032;2023-01-13T06:41:33;100057.16;;;23.97;33.44
60646;BME280;46462;32.608;-117.032;2023-01-13T06:44:03;100061.62;;;23.93;33.55
60646;BME280;46462;32.608;-117.032;2023-01-13T06:46:33;100061.13;;;23.92;33.58
60646;BME280;46462;32.608;-117.032;2023-01-13T06:49:03;100058.80;;;23.87;33.70
60646;BME280;46462;32.608;-117.032;2023-01-13T06:51:34;100056.73;;;23.87;33.64
60646;BME280;46462;32.608;-117.032;2023-01-13T06:54:04;100053.46;;;23.82;33.74
60646;BME280;46462;32.608;-117.032;2023-01-13T06:56:34;100052.53;;;23.87;33.64
60646;BME280;46462;32.608;-117.032;2023-01-13T06:59:04;100048.76;;;23.82;33.72
60646;BME280;46462;32.608;-117.032;2023-01-13T07:01:34;100043.75;;;23.84;33.65
60646;BME280;46462;32.608;-117.032;2023-01-13T07:04:04;100040.47;;;23.79;33.75
60646;BME280;46462;32.608;-117.032;2023-01-13T07:06:35;100042.18;;;23.81;33.78
60646;BME280;46462;32.608;-117.032;2023-01-13T07:09:05;100039.97;;;23.75;33.86
60646;BME280;46462;32.608;-117.032;2023-01-13T07:11:35;100036.45;;;23.56;34.03
60646;BME280;46462;32.608;-117.032;2023-01-13T07:14:06;100037.68;;;23.61;33.96
60646;BME280;46462;32.608;-117.032;2023-01-13T07:16:35;100036.77;;;23.61;33.97
60646;BME280;46462;32.608;-117.032;2023-01-13T07:19:05;100033.46;;;23.60;33.95
60646;BME280;46462;32.608;-117.032;2023-01-13T07:21:37;100027.96;;;23.42;34.16
60646;BME280;46462;32.608;-117.032;2023-01-13T07:24:06;100020.60;;;23.41;34.24
60646;BME280;46462;32.608;-117.032;2023-01-13T07:26:36;100018.69;;;23.29;34.48
60646;BME280;46462;32.608;-117.032;2023-01-13T07:29:06;100016.97;;;23.29;34.49
60646;BME280;46462;32.608;-117.032;2023-01-13T07:31:37;100014.16;;;23.30;34.37
60646;BME280;46462;32.608;-117.032;2023-01-13T07:34:07;100010.82;;;23.07;34.83
60646;BME280;46462;32.608;-117.032;2023-01-13T07:36:37;100010.78;;;23.03;34.81
60646;BME280;46462;32.608;-117.032;2023-01-13T07:39:07;100011.94;;;23.09;34.71
60646;BME280;46462;32.608;-117.032;2023-01-13T07:41:37;100009.10;;;23.15;34.56
60646;BME280;46462;32.608;-117.032;2023-01-13T07:44:08;100007.79;;;22.85;35.02
60646;BME280;46462;32.608;-117.032;2023-01-13T07:46:38;100012.56;;;22.94;34.96
60646;BME280;46462;32.608;-117.032;2023-01-13T07:49:08;100007.60;;;22.87;34.96
60646;BME280;46462;32.608;-117.032;2023-01-13T07:51:39;100003.44;;;22.79;35.07
60646;BME280;46462;32.608;-117.032;2023-01-13T07:54:08;100000.72;;;22.58;35.44
60646;BME280;46462;32.608;-117.032;2023-01-13T07:56:38;99998.33;;;22.59;35.29
60646;BME280;46462;32.608;-117.032;2023-01-13T07:59:09;99994.22;;;22.50;35.45
60646;BME280;46462;32.608;-117.032;2023-01-13T08:01:39;99994.81;;;22.41;35.47
60646;BME280;46462;32.608;-117.032;2023-01-13T08:04:09;99994.15;;;22.19;36.06
60646;BME280;46462;32.608;-117.032;2023-01-13T08:06:39;99986.87;;;22.20;35.91
60646;BME280;46462;32.608;-117.032;2023-01-13T08:09:10;99984.50;;;22.34;35.69
60646;BME280;46462;32.608;-117.032;2023-01-13T08:11:39;99985.03;;;22.52;35.24
60646;BME280;46462;32.608;-117.032;2023-01-13T08:14:10;99984.22;;;22.26;35.81
60646;BME280;46462;32.608;-117.032;2023-01-13T08:16:40;99985.73;;;22.32;35.83
60646;BME280;46462;32.608;-117.032;2023-01-13T08:19:10;99985.92;;;22.15;36.05
60646;BME280;46462;32.608;-117.032;2023-01-13T08:21:40;99985.69;;;22.21;35.91
60646;BME280;46462;32.608;-117.032;2023-01-13T08:24:11;99990.05;;;22.09;36.06
60646;BME280;46462;32.608;-117.032;2023-01-13T08:26:41;99997.38;;;22.09;36.05
60646;BME280;46462;32.608;-117.032;2023-01-13T08:29:11;99999.67;;;21.94;36.05
60646;BME280;46462;32.608;-117.032;2023-01-13T08:31:41;99993.95;;;22.03;36.08
60646;BME280;46462;32.608;-117.032;2023-01-13T08:34:11;99992.06;;;22.17;35.89
60646;BME280;46462;32.608;-117.032;2023-01-13T08:36:41;99991.44;;;22.13;36.04
60646;BME280;46462;32.608;-117.032;2023-01-13T08:39:12;99991.94;;;22.05;36.23
60646;BME280;46462;32.608;-117.032;2023-01-13T08:41:43;99990.09;;;22.01;36.26
60646;BME280;46462;32.608;-117.032;2023-01-13T08:44:12;99989.57;;;21.94;36.26
60646;BME280;46462;32.608;-117.032;2023-01-13T08:46:42;99987.19;;;22.15;35.98
60646;BME280;46462;32.608;-117.032;2023-01-13T08:49:12;99985.41;;;22.06;36.10
60646;BME280;46462;32.608;-117.032;2023-01-13T08:51:43;99987.59;;;21.80;36.53
60646;BME280;46462;32.608;-117.032;2023-01-13T08:54:13;99982.18;;;21.95;36.14
60646;BME280;46462;32.608;-117.032;2023-01-13T08:56:44;99979.82;;;21.94;36.26
60646;BME280;46462;32.608;-117.032;2023-01-13T08:59:15;99979.30;;;22.04;36.07
60646;BME280;46462;32.608;-117.032;2023-01-13T09:01:44;99978.22;;;21.78;36.53
60646;BME280;46462;32.608;-117.032;2023-01-13T09:04:17;99974.43;;;21.83;36.33
60646;BME280;46462;32.608;-117.032;2023-01-13T09:06:44;99975.26;;;21.79;36.40
60646;BME280;46462;32.608;-117.032;2023-01-13T09:09:15;99974.85;;;21.85;36.14
60646;BME280;46462;32.608;-117.032;2023-01-13T09:11:46;99974.82;;;21.62;36.82
60646;BME280;46462;32.608;-117.032;2023-01-13T09:14:17;99976.92;;;21.68;36.66
60646;BME280;46462;32.608;-117.032;2023-01-13T09:16:45;99971.04;;;21.46;36.98
60646;BME280;46462;32.608;-117.032;2023-01-13T09:19:15;99968.94;;;21.51;36.90
60646;BME280;46462;32.608;-117.032;2023-01-13T09:21:45;99971.62;;;21.78;36.30
60646;BME280;46462;32.608;-117.032;2023-01-13T09:24:15;99971.29;;;21.66;36.40
60646;BME280;46462;32.608;-117.032;2023-01-13T09:26:46;99965.99;;;21.68;36.26
60646;BME280;46462;32.608;-117.032;2023-01-13T09:29:16;99962.89;;;21.55;36.55
60646;BME280;46462;32.608;-117.032;2023-01-13T09:31:46;99968.15;;;21.57;36.69
60646;BME280;46462;32.608;-117.032;2023-01-13T09:34:18;99968.69;;;21.44;36.80
60646;BME280;46462;32.608;-117.032;2023-01-13T09:36:46;99969.48;;;21.39;36.80
60646;BME280;46462;32.608;-117.032;2023-01-13T09:39:17;99971.85;;;21.42;36.79
60646;BME280;46462;32.608;-117.032;2023-01-13T09:41:49;99972.41;;;21.38;36.82
60646;BME280;46462;32.608;-117.032;2023-01-13T09:44:21;99974.65;;;21.22;37.30
60646;BME280;46462;32.608;-117.032;2023-01-13T09:46:50;99973.65;;;21.24;36.98
60646;BME280;46462;32.608;-117.032;2023-01-13T09:49:20;99974.70;;;21.29;37.03
60646;BME280;46462;32.608;-117.032;2023-01-13T09:51:52;99976.24;;;21.35;36.88
60646;BME280;46462;32.608;-117.032;2023-01-13T09:54:24;99975.61;;;21.33;36.93
60646;BME280;46462;32.608;-117.032;2023-01-13T09:56:48;99973.48;;;21.22;37.28
60646;BME280;46462;32.608;-117.032;2023-01-13T09:59:18;99972.66;;;21.24;36.89
60646;BME280;46462;32.608;-117.032;2023-01-13T10:01:53;99971.21;;;21.18;37.25
60646;BME280;46462;32.608;-117.032;2023-01-13T10:04:19;99965.77;;;21.32;36.77
60646;BME280;46462;32.608;-117.032;2023-01-13T10:06:53;99964.12;;;21.31;36.99
60646;BME280;46462;32.608;-117.032;2023-01-13T10:09:24;99963.41;;;21.34;36.80
60646;BME280;46462;32.608;-117.032;2023-01-13T10:11:50;99962.32;;;21.32;36.95
60646;BME280;46462;32.608;-117.032;2023-01-13T10:14:22;99964.18;;;21.25;36.75
60646;BME280;46462;32.608;-117.032;2023-01-13T10:16:53;99968.58;;;21.06;37.28
60646;BME280;46462;32.608;-117.032;2023-01-13T10:19:24;99973.12;;;21.16;37.01
60646;BME280;46462;32.608;-117.032;2023-01-13T10:24:27;99975.48;;;21.19;37.10
60646;BME280;46462;32.608;-117.032;2023-01-13T10:26:55;99978.16;;;21.05;37.11
60646;BME280;46462;32.608;-117.032;2023-01-13T10:29:22;99980.70;;;21.10;37.29
60646;BME280;46462;32.608;-117.032;2023-01-13T10:31:51;99974.48;;;21.17;36.98
60646;BME280;46462;32.608;-117.032;2023-01-13T10:34:22;99971.21;;;21.17;37.01
60646;BME280;46462;32.608;-117.032;2023-01-13T10:36:57;99969.39;;;21.04;37.24
60646;BME280;46462;32.608;-117.032;2023-01-13T10:39:21;99967.36;;;20.98;37.14
60646;BME280;46462;32.608;-117.032;2023-01-13T10:44:22;99964.12;;;20.94;37.28
60646;BME280;46462;32.608;-117.032;2023-01-13T10:46:54;99961.21;;;20.99;37.22
60646;BME280;46462;32.608;-117.032;2023-01-13T10:49:28;99959.91;;;20.82;37.63
60646;BME280;46462;32.608;-117.032;2023-01-13T10:51:52;99954.13;;;20.69;37.80
60646;BME280;46462;32.608;-117.032;2023-01-13T10:54:24;99949.09;;;20.80;37.60
60646;BME280;46462;32.608;-117.032;2023-01-13T10:59:25;99944.94;;;20.78;37.72
60646;BME280;46462;32.608;-117.032;2023-01-13T11:01:59;99944.25;;;20.97;37.08
60646;BME280;46462;32.608;-117.032;2023-01-13T11:04:29;99943.51;;;20.89;37.25
60646;BME280;46462;32.608;-117.032;2023-01-13T11:06:54;99941.77;;;20.80;37.60
60646;BME280;46462;32.608;-117.032;2023-01-13T11:09:25;99937.82;;;20.95;37.32
60646;BME280;46462;32.608;-117.032;2023-01-13T11:11:56;99933.01;;;20.78;37.47
60646;BME280;46462;32.608;-117.032;2023-01-13T11:14:28;99934.17;;;20.78;37.55
60646;BME280;46462;32.608;-117.032;2023-01-13T11:16:56;99934.61;;;20.69;37.84
60646;BME280;46462;32.608;-117.032;2023-01-13T11:19:27;99932.08;;;20.64;37.89
60646;BME280;46462;32.608;-117.032;2023-01-13T11:21:59;99927.76;;;20.65;37.87
60646;BME280;46462;32.608;-117.032;2023-01-13T11:24:32;99918.67;;;20.68;37.66
60646;BME280;46462;32.608;-117.032;2023-01-13T11:26:59;99912.69;;;20.70;37.60
60646;BME280;46462;32.608;-117.032;2023-01-13T11:29:30;99910.74;;;20.72;37.57
60646;BME280;46462;32.608;-117.032;2023-01-13T11:32:04;99909.95;;;20.62;37.55
60646;BME280;46462;32.608;-117.032;2023-01-13T11:34:29;99912.04;;;20.58;37.60
60646;BME280;46462;32.608;-117.032;2023-01-13T11:36:59;99911.27;;;20.68;37.65
60646;BME280;46462;32.608;-117.032;2023-01-13T11:39:33;99906.85;;;20.80;37.13
60646;BME280;46462;32.608;-117.032;2023-01-13T11:42:00;99902.71;;;20.70;37.53
60646;BME280;46462;32.608;-117.032;2023-01-13T11:44:34;99903.28;;;20.68;37.38
60646;BME280;46462;32.608;-117.032;2023-01-13T11:46:57;99902.37;;;20.59;37.75
60646;BME280;46462;32.608;-117.032;2023-01-13T11:49:30;99900.59;;;20.60;37.61
60646;BME280;46462;32.608;-117.032;2023-01-13T11:52:03;99900.91;;;20.68;37.65
60646;BME280;46462;32.608;-117.032;2023-01-13T11:54:39;99897.85;;;20.52;37.70
60646;BME280;46462;32.608;-117.032;2023-01-13T11:57:12;99898.80;;;20.59;37.67
60646;BME280;46462;32.608;-117.032;2023-01-13T11:59:44;99898.62;;;20.60;37.67
60646;BME280;46462;32.608;-117.032;2023-01-13T12:02:13;99904.81;;;20.60;37.39
60646;BME280;46462;32.608;-117.032;2023-01-13T12:04:35;99912.44;;;20.52;37.77
60646;BME280;46462;32.608;-117.032;2023-01-13T12:07:07;99916.10;;;20.46;37.94
60646;BME280;46462;32.608;-117.032;2023-01-13T12:09:36;99916.79;;;20.56;37.47
60646;BME280;46462;32.608;-117.032;2023-01-13T12:12:08;99918.77;;;20.42;37.83
60646;BME280;46462;32.608;-117.032;2023-01-13T12:14:37;99920.07;;;20.46;37.74
60646;BME280;46462;32.608;-117.032;2023-01-13T12:17:02;99921.56;;;20.52;37.57
60646;BME280;46462;32.608;-117.032;2023-01-13T12:19:31;99921.96;;;20.61;37.48
60646;BME280;46462;32.608;-117.032;2023-01-13T12:22:08;99927.65;;;20.36;37.71
60646;BME280;46462;32.608;-117.032;2023-01-13T12:24:34;99925.18;;;20.38;37.75
60646;BME280;46462;32.608;-117.032;2023-01-13T12:27:04;99926.97;;;20.37;37.95
60646;BME280;46462;32.608;-117.032;2023-01-13T12:29:33;99927.09;;;20.37;37.67
60646;BME280;46462;32.608;-117.032;2023-01-13T12:32:03;99929.15;;;20.38;37.97
60646;BME280;46462;32.608;-117.032;2023-01-13T12:34:42;99927.45;;;20.31;38.04
60646;BME280;46462;32.608;-117.032;2023-01-13T12:37:09;99924.61;;;20.24;37.96
60646;BME280;46462;32.608;-117.032;2023-01-13T12:39:41;99926.61;;;20.25;37.94
60646;BME280;46462;32.608;-117.032;2023-01-13T12:42:09;99927.59;;;20.33;37.85
60646;BME280;46462;32.608;-117.032;2023-01-13T12:44:32;99924.62;;;20.29;37.98
60646;BME280;46462;32.608;-117.032;2023-01-13T12:47:03;99924.57;;;20.35;37.80
60646;BME280;46462;32.608;-117.032;2023-01-13T12:49:33;99919.35;;;20.40;37.68
60646;BME280;46462;32.608;-117.032;2023-01-13T12:52:09;99914.18;;;20.33;37.71
60646;BME280;46462;32.608;-117.032;2023-01-13T12:57:13;99912.32;;;19.99;38.46
60646;BME280;46462;32.608;-117.032;2023-01-13T12:59:34;99916.52;;;20.09;38.20